Terminal Aerodrome Forecast
Issued by NWS Lake Charles, LA

Home | Current Version | Previous Version | Text Only | Print | Product List | Glossary On
Versions: 1 2 3 4 5 6 7 8 9 10 11 12
000
FTUS44 KLCH 010520
TAFBPT
TAF
KBPT 010520Z 0106/0206 VRB03KT P6SM SCT025 BKN200
     FM010900 VRB03KT P6SM VCSH SCT025 BKN150
      TEMPO 0110/0114 4SM BR
     FM011500 17008KT P6SM VCSH SCT030 BKN250 PROB30 0115/0121 4SM
      SHRA SCT020 BKN035
     FM020100 17005KT P6SM FEW040 BKN200=

USA.gov is the U.S. government's official web portal to all federal, state and local government web resources and services.